Map

Track Data

SID SEASON NUMBER BASIN SUBBASIN NAME ISO_TIME NATURE LAT LON WMO_WIND WMO_PRES WMO_AGENCY TRACK_TYPE DIST2LAND LANDFALL IFLAG USA_AGENCY USA_ATCF_ID USA_LAT USA_LON USA_RECORD USA_STATUS USA_WIND USA_PRES USA_SSHS USA_R34_NE USA_R34_SE USA_R34_SW USA_R34_NW USA_R50_NE USA_R50_SE USA_R50_SW USA_R50_NW USA_R64_NE USA_R64_SE USA_R64_SW USA_R64_NW USA_POCI USA_ROCI USA_RMW USA_EYE TOKYO_LAT TOKYO_LON TOKYO_GRADE TOKYO_WIND TOKYO_PRES TOKYO_R50_DIR TOKYO_R50_LONG TOKYO_R50_SHORT TOKYO_R30_DIR TOKYO_R30_LONG TOKYO_R30_SHORT TOKYO_LAND CMA_LAT CMA_LON CMA_CAT CMA_WIND CMA_PRES HKO_LAT HKO_LON HKO_CAT HKO_WIND HKO_PRES NEWDELHI_LAT NEWDELHI_LON NEWDELHI_GRADE NEWDELHI_WIND NEWDELHI_PRES NEWDELHI_CI NEWDELHI_DP NEWDELHI_POCI REUNION_LAT REUNION_LON REUNION_TYPE REUNION_WIND REUNION_PRES REUNION_TNUM REUNION_CI REUNION_RMW REUNION_R34_NE REUNION_R34_SE REUNION_R34_SW REUNION_R34_NW REUNION_R50_NE REUNION_R50_SE REUNION_R50_SW REUNION_R50_NW REUNION_R64_NE REUNION_R64_SE REUNION_R64_SW REUNION_R64_NW BOM_LAT BOM_LON BOM_TYPE BOM_WIND BOM_PRES BOM_TNUM BOM_CI BOM_RMW BOM_R34_NE BOM_R34_SE BOM_R34_SW BOM_R34_NW BOM_R50_NE BOM_R50_SE BOM_R50_SW BOM_R50_NW BOM_R64_NE BOM_R64_SE BOM_R64_SW BOM_R64_NW BOM_ROCI BOM_POCI BOM_EYE BOM_POS_METHOD BOM_PRES_METHOD NADI_LAT NADI_LON NADI_CAT NADI_WIND NADI_PRES WELLINGTON_LAT WELLINGTON_LON WELLINGTON_WIND WELLINGTON_PRES DS824_LAT DS824_LON DS824_STAGE DS824_WIND DS824_PRES TD9636_LAT TD9636_LON TD9636_STAGE TD9636_WIND TD9636_PRES TD9635_LAT TD9635_LON TD9635_WIND TD9635_PRES TD9635_ROCI NEUMANN_LAT NEUMANN_LON NEUMANN_CLASS NEUMANN_WIND NEUMANN_PRES MLC_LAT MLC_LON MLC_CLASS MLC_WIND MLC_PRES USA_GUST BOM_GUST BOM_GUST_PER REUNION_GUST REUNION_GUST_PER USA_SEAHGT USA_SEARAD_NE USA_SEARAD_SE USA_SEARAD_SW USA_SEARAD_NW STORM_SPEED STORM_DIR
1963014S17161 1963 6 SP MM NOT_NAMED 1963-01-13 12:00:00 TS -16.9000 161.000 main 493 486 O________OO___ jtwc_sh SH171963 -16.9000 161.000 -1 -16.9000 161.000 TC -16.9000 161.000 2 3 80
1963014S17161 1963 6 SP MM NOT_NAMED 1963-01-13 15:00:00 TS -16.8761 161.150 main 479 472 P________PP___ SH171963 -16.8875 161.132 -1 -16.8875 161.132 TC -16.8534 161.185 2 3 87
1963014S17161 1963 6 SP MM NOT_NAMED 1963-01-13 18:00:00 TS -16.8851 161.325 main 472 450 O________OP___ jtwc_sh SH171963 -16.9000 161.300 -1 -16.9000 161.300 TC -16.8554 161.376 2 4 104
1963014S17161 1963 6 SP MM NOT_NAMED 1963-01-13 21:00:00 TS -16.9682 161.545 main 450 413 P________PP___ SH171963 -16.9750 161.528 -1 -16.9750 161.528 TC -16.9547 161.579 2 6 125
1963014S17161 1963 6 SP MM NOT_NAMED 1963-01-14 00:00:00 TS -17.2000 161.800 main 413 358 O________OO_O_ jtwc_sh SH171963 -17.2000 161.800 -1 -17.2000 161.800 TC 35 -17.2000 161.800 2 -17.2000 161.800 TC 30 9 145
1963014S17161 1963 6 SP MM NOT_NAMED 1963-01-14 03:00:00 TS -17.6749 162.066 main 349 292 P________PP_P_ SH171963 -17.6625 162.085 -1 -17.6625 162.085 TC 35 -17.6148 162.047 2 -17.8451 162.030 TC 32 12 152
1963014S17161 1963 6 SP MM NOT_NAMED 1963-01-14 06:00:00 TS -18.2191 162.363 main 286 222 O________OP_O_ jtwc_sh SH171963 -18.2000 162.400 -1 -18.2000 162.400 TC 35 -18.1217 162.336 2 -18.4000 162.300 TC 35 12 150
1963014S17161 1963 6 SP MM NOT_NAMED 1963-01-14 09:00:00 TS -18.6893 162.692 main 222 170 P________PP_P_ SH171963 -18.6748 162.720 -1 -18.6748 162.720 TC 35 -18.6177 162.681 2 -18.7898 162.647 TC 35 11 138
1963014S17161 1963 6 SP MM NOT_NAMED 1963-01-14 12:00:00 TS -19.0000 163.100 main 170 133 O________OO_O_ jtwc_sh SH171963 -19.0000 163.100 -1 -19.0000 163.100 TC 35 -19.0000 163.100 2 -19.0000 163.100 TC 35 9 114
1963014S17161 1963 6 SP MM NOT_NAMED 1963-01-14 15:00:00 TS -19.0734 163.590 main 133 123 P________PP_P_ SH171963 -19.0598 163.555 -1 -19.0598 163.555 TC 35 -19.1289 163.572 2 -19.0451 163.678 TC 35 10 92
1963014S17161 1963 6 SP MM NOT_NAMED 1963-01-14 18:00:00 TS -19.0335 164.154 main 134 134 O________OP_O_ jtwc_sh SH171963 -19.0000 164.100 -1 -19.0000 164.100 TC 35 -19.1341 164.117 2 -19.0000 164.300 TC 35 11 87
1963014S17161 1963 6 SP MM NOT_NAMED 1963-01-14 21:00:00 TS -19.0179 164.745 main 146 146 P________PP_P_ SH171963 -18.9998 164.713 -1 -18.9998 164.713 TC 35 -19.0723 164.728 2 -18.9995 164.828 TC 37 12 88
1963014S17161 1963 6 SP MM NOT_NAMED 1963-01-15 00:00:00 TS -19.0000 165.400 main 173 173 O________OO_O_ jtwc_sh SH171963 -19.0000 165.400 -1 -19.0000 165.400 TC 35 -19.0000 165.400 2 -19.0000 165.400 TC 40 13 89
1963014S17161 1963 6 SP MM NOT_NAMED 1963-01-15 03:00:00 TS -18.9970 166.127 main 221 221 P________PP_P_ SH171963 -18.9998 166.128 -1 -18.9998 166.128 TC 35 -18.9886 166.142 2 -18.9999 166.113 TC 40 14 90
1963014S17161 1963 6 SP MM NOT_NAMED 1963-01-15 06:00:00 TS -18.9947 166.909 main 268 268 O________OP_O_ jtwc_sh SH171963 -19.0000 166.900 -1 -19.0000 166.900 TC 35 -18.9786 166.936 2 -19.0000 166.900 TC 40 15 90
1963014S17161 1963 6 SP MM NOT_NAMED 1963-01-15 09:00:00 TS -18.9892 167.724 main 268 268 P________PP_P_ SH171963 -18.9926 167.723 -1 -18.9926 167.723 TC 35 -18.9792 167.736 2 -18.9925 167.715 TC 42 15 90
1963014S17161 1963 6 SP MM NOT_NAMED 1963-01-15 12:00:00 TS -19.0000 168.500 main 278 278 O________OO_O_ jtwc_sh SH171963 -19.0000 168.500 -1 -19.0000 168.500 TC 35 -19.0000 168.500 2 -19.0000 168.500 TC 45 13 92
1963014S17161 1963 6 SP MM NOT_NAMED 1963-01-15 15:00:00 TS -19.0345 169.138 main 301 301 P________PP_P_ SH171963 -19.0344 169.123 -1 -19.0344 169.123 TC 35 -19.0347 169.128 2 -19.0346 169.180 TC 45 12 95
1963014S17161 1963 6 SP MM NOT_NAMED 1963-01-15 18:00:00 TS -19.0985 169.730 main 344 344 O________OP_O_ jtwc_sh SH171963 -19.1000 169.700 -1 -19.1000 169.700 TC 35 -19.0940 169.721 2 -19.1000 169.800 TC 45 11 98
1963014S17161 1963 6 SP MM NOT_NAMED 1963-01-15 21:00:00 TS -19.1837 170.329 main 393 393 P________PP_P_ SH171963 -19.1845 170.313 -1 -19.1845 170.313 TC 35 -19.1814 170.328 2 -19.1842 170.363 TC 45 12 100
1963014S17161 1963 6 SP MM NOT_NAMED 1963-01-16 00:00:00 TS -19.3000 171.000 main 453 453 O________OO_O_ jtwc_sh SH171963 -19.3000 171.000 -1 -19.3000 171.000 TC 35 -19.3000 171.000 2 -19.3000 171.000 TC 45 14 100
1963014S17161 1963 6 SP MM NOT_NAMED 1963-01-16 03:00:00 TS -19.4352 171.834 main 526 506 P________PP_P_ SH171963 -19.4349 171.813 -1 -19.4349 171.813 TC 35 -19.4357 171.847 2 -19.4353 171.863 TC 45 17 100
1963014S17161 1963 6 SP MM NOT_NAMED 1963-01-16 06:00:00 TS -19.6000 172.739 main 506 428 O________OP_O_ jtwc_sh SH171963 -19.6000 172.700 -1 -19.6000 172.700 TC 35 -19.5999 172.757 2 -19.6000 172.800 TC 45 18 102
1963014S17161 1963 6 SP MM NOT_NAMED 1963-01-16 09:00:00 TS -19.7880 173.658 main 419 361 P________PP_P_ SH171963 -19.7853 173.637 -1 -19.7853 173.637 TC 35 -19.7889 173.663 2 -19.7925 173.695 TC 45 17 104
1963014S17161 1963 6 SP MM NOT_NAMED 1963-01-16 12:00:00 TS -20.0000 174.500 main 361 329 O________OO_O_ jtwc_sh SH171963 -20.0000 174.500 -1 -20.0000 174.500 TC 35 -20.0000 174.500 2 -20.0000 174.500 TC 45 15 107
1963014S17161 1963 6 SP MM NOT_NAMED 1963-01-16 15:00:00 TS -20.2132 175.144 main 329 307 P________PP_P_ SH171963 -20.2418 175.145 -1 -20.2418 175.145 TC 35 -20.1848 175.149 2 -20.1844 175.138 TC 45 12 112
1963014S17161 1963 6 SP MM NOT_NAMED 1963-01-16 18:00:00 TS -20.4496 175.707 main 307 306 O________OP_O_ jtwc_sh SH171963 -20.5000 175.700 -1 -20.5000 175.700 TC 35 -20.3984 175.726 2 -20.4000 175.700 TC 45 12 115
1963014S17161 1963 6 SP MM NOT_NAMED 1963-01-16 21:00:00 TS -20.7002 176.264 main 309 305 P________PP_P_ SH171963 -20.7342 176.256 -1 -20.7342 176.256 TC 35 -20.6630 176.290 2 -20.6693 176.256 TC 40 12 116
1963014S17161 1963 6 SP MM NOT_NAMED 1963-01-17 00:00:00 TS -21.0000 176.900 main 319 316 O________OO_O_ jtwc_sh SH171963 -21.0000 176.900 -1 -21.0000 176.900 TC 35 -21.0000 176.900 2 -21.0000 176.900 TC 35 15 114
1963014S17161 1963 6 SP MM NOT_NAMED 1963-01-17 03:00:00 TS -21.3227 177.775 main 335 335 P________PP_P_ SH171963 -21.2906 177.785 -1 -21.2906 177.785 TC 35 -21.3539 177.742 2 -21.3556 177.785 TC 35 18 114
1963014S17161 1963 6 SP MM NOT_NAMED 1963-01-17 06:00:00 TS -21.7467 178.681 main 383 383 O________OP_O_ jtwc_sh SH171963 -21.7000 178.700 -1 -21.7000 178.700 TC 35 -21.7869 178.625 2 -21.8000 178.700 TC 35 19 121
1963014S17161 1963 6 SP MM NOT_NAMED 1963-01-17 09:00:00 TS -22.2909 179.490 main 467 467 P________PP_P_ SH171963 -22.2600 179.504 -1 -22.2600 179.504 TC 35 -22.3259 179.445 2 -22.3175 179.505 TC 35 18 134
1963014S17161 1963 6 SP MM NOT_NAMED 1963-01-17 12:00:00 TS -23.0000 180.100 main 561 561 O________OO_O_ jtwc_sh SH171963 -23.0000 -179.900 -1 -23.0000 180.100 TC 35 -23.0000 -179.900 2 -23.0000 -179.900 TC 35 18 152
1963014S17161 1963 6 SP MM NOT_NAMED 1963-01-17 15:00:00 TS -23.8778 180.400 main 666 666 P________PP_P_ SH171963 -23.8970 -179.616 -1 -23.8970 -179.616 TC 35 -23.8279 -179.549 2 -23.8895 -179.616 TC 35 19 168
1963014S17161 1963 6 SP MM NOT_NAMED 1963-01-17 18:00:00 TS -24.8725 180.532 main 775 775 O________OP_O_ jtwc_sh SH171963 -24.9000 -179.500 -1 -24.9000 180.500 TC 35 -24.7899 -179.371 2 -24.9000 -179.500 TC 35 20 173
1963014S17161 1963 6 SP MM NOT_NAMED 1963-01-17 21:00:00 TS -25.8717 180.667 main 887 887 P________PP_P_ SH171963 -25.8849 -179.349 -1 -25.8849 -179.349 TC 35 -25.8320 -179.283 2 -25.8849 -179.349 TC 35 21 173
1963014S17161 1963 6 SP MM NOT_NAMED 1963-01-18 00:00:00 TS -26.9000 180.800 main 997 997 O________OO_O_ jtwc_sh SH171963 -26.9000 -179.200 -1 -26.9000 180.800 TC 35 -26.9000 -179.200 2 -26.9000 -179.200 TC 35 21 173
1963014S17161 1963 6 SP MM NOT_NAMED 1963-01-18 03:00:00 TS -27.9617 180.961 main 1030 949 P________PP_P_ SH171963 -27.9500 -179.015 -1 -27.9500 -179.015 TC 35 -27.9967 -179.110 2 -27.9500 -179.015 TC 35 22 172
1963014S17161 1963 6 SP MM NOT_NAMED 1963-01-18 06:00:00 TS -29.0236 181.153 main 955 881 O________OP_O_ jtwc_sh SH171963 -29.0000 -178.800 -1 -29.0000 181.200 TC 35 -29.0945 -178.990 2 -29.0000 -178.800 TC 35 21 171
1963014S17161 1963 6 SP MM NOT_NAMED 1963-01-18 09:00:00 TS -30.0726 181.341 main 873 798 P________PP_P_ SH171963 -30.0593 -178.624 -1 -30.0593 -178.624 TC 35 -30.1202 -178.750 2 -30.0516 -178.638 TC 35 20 167
1963014S17161 1963 6 SP MM NOT_NAMED 1963-01-18 12:00:00 TS -31.0000 181.700 main 798 744 O________OO_O_ jtwc_sh SH171963 -31.0000 -178.300 -1 -31.0000 181.700 TC 35 -31.0000 -178.300 2 -31.0000 -178.300 TC 35 19 154
1963014S17161 1963 6 SP MM NOT_NAMED 1963-01-18 15:00:00 TS -31.7496 182.317 main 748 726 P________PP_P_ SH171963 -31.7534 -177.757 -1 -31.7534 -177.757 TC 35 -31.6796 -177.573 2 -31.8118 -177.644 TC 35 18 135
1963014S17161 1963 6 SP MM NOT_NAMED 1963-01-18 18:00:00 TS -32.2971 183.221 main 732 732 O________OP_O_ jtwc_sh SH171963 -32.3000 -176.900 -1 -32.3000 183.100 TC 35 -32.1884 -176.614 2 -32.4000 -176.700 TC 35 20 117
1963014S17161 1963 6 SP MM NOT_NAMED 1963-01-18 21:00:00 TS -32.6547 184.388 main 765 765 P________PP_P_ SH171963 -32.6567 -175.699 -1 -32.6567 -175.699 TC 35 -32.5777 -175.498 2 -32.7278 -175.552 TC 32 22 106
1963014S17161 1963 6 SP MM NOT_NAMED 1963-01-19 00:00:00 TS -32.9000 185.700 main 835 O________OO_O_ jtwc_sh SH171963 -32.9000 -174.300 -1 -32.9000 185.700 TC 35 -32.9000 -174.300 2 -32.9000 -174.300 TC 30 23 103

Digital Typhoon Data and Search

About IBTrACS Database

This database is a web-friendly format of International Best Track Archive for Climate Stewardship (IBTrACS), a global best track data archive curated by NOAA dating back to 1842.

Updated: 2021-10-08